Time;durP1;ratioP1;P1;durP2;ratioP2;P2;SDS_P1;SDS_P2;PMS_P1;PMS_P2;Temp;Humidity;BMP_temperature;BMP_pressure;BME280_temperature;BME280_humidity;BME280_pressure;Samples;Min_cycle;Max_cycle;Signal;HPM_P1;HPM_P2
2023/03/01 00:01:05;;;;;;;7.18;5.40;;;;;;;5.29;100.00;100193.13;5112648;27;20098;-69
2023/03/01 00:03:30;;;;;;;;;;;;;;;5.37;100.00;100192.56;5113819;28;20023;-69
2023/03/01 00:05:55;;;;;;;7.03;5.13;;;;;;;5.25;100.00;100179.03;5119022;27;19931;-69
2023/03/01 00:08:21;;;;;;;5.72;4.95;;;;;;;5.28;100.00;100178.44;5131158;27;20034;-69
2023/03/01 00:10:46;;;;;;;5.63;4.38;;;;;;;5.28;100.00;100177.59;5111363;28;20056;-69
2023/03/01 00:13:12;;;;;;;4.13;3.67;;;;;;;5.24;100.00;100177.34;5125162;27;20023;-69
2023/03/01 00:15:41;;;;;;;4.38;3.78;;;;;;;5.25;100.00;100172.63;5116552;27;20031;-69
2023/03/01 00:18:08;;;;;;;6.28;4.20;;;;;;;5.12;100.00;100169.34;5132083;27;20031;-69
2023/03/01 00:20:34;;;;;;;5.20;4.28;;;;;;;5.14;100.00;100172.66;5133324;27;20065;-69
2023/03/01 00:22:59;;;;;;;5.20;3.55;;;;;;;5.08;100.00;100168.25;5127199;27;20033;-69
2023/03/01 00:25:24;;;;;;;5.75;4.05;;;;;;;5.07;100.00;100163.81;5115530;27;20401;-69
2023/03/01 00:27:50;;;;;;;5.10;3.78;;;;;;;5.16;100.00;100170.44;5113264;28;20062;-69
2023/03/01 00:30:16;;;;;;;4.53;3.92;;;;;;;5.17;100.00;100168.50;5115584;27;20019;-69
2023/03/01 00:32:41;;;;;;;5.53;4.35;;;;;;;5.28;100.00;100167.34;5122035;27;20040;-69
2023/03/01 00:35:07;;;;;;;5.95;4.10;;;;;;;5.21;100.00;100172.34;5120775;27;20393;-69
2023/03/01 00:37:32;;;;;;;5.07;3.75;;;;;;;5.26;100.00;100163.19;5131918;27;20490;-69
2023/03/01 00:39:58;;;;;;;5.35;4.47;;;;;;;5.20;100.00;100160.44;5113485;27;20079;-69
2023/03/01 00:42:23;;;;;;;5.35;4.28;;;;;;;5.32;100.00;100160.13;5124014;27;20031;-70
2023/03/01 00:44:49;;;;;;;5.25;4.55;;;;;;;5.30;100.00;100147.63;5112747;28;20047;-69
2023/03/01 00:47:14;;;;;;;5.15;4.00;;;;;;;5.16;100.00;100152.97;5111728;28;20389;-69
2023/03/01 00:49:40;;;;;;;6.57;5.07;;;;;;;5.15;100.00;100160.44;5112656;28;20102;-69
2023/03/01 00:52:05;;;;;;;6.05;4.32;;;;;;;5.18;100.00;100151.56;5112812;28;20023;-69
2023/03/01 00:54:31;;;;;;;6.88;4.70;;;;;;;5.14;100.00;100147.69;5111396;28;20020;-69
2023/03/01 00:56:56;;;;;;;6.13;5.03;;;;;;;5.12;100.00;100149.91;5112387;28;20023;-69
2023/03/01 00:59:22;;;;;;;5.95;4.93;;;;;;;5.19;100.00;100147.69;5112475;28;20097;-69
2023/03/01 01:01:47;;;;;;;6.45;4.65;;;;;;;5.05;100.00;100135.50;5111506;28;20055;-69
2023/03/01 01:04:13;;;;;;;6.55;5.03;;;;;;;5.23;100.00;100136.03;5111965;28;20346;-69
2023/03/01 01:06:44;;;;;;;6.18;5.05;;;;;;;5.22;100.00;100156.56;5111003;28;20024;-69
2023/03/01 01:09:19;;;;;;;6.32;5.40;;;;;;;5.15;100.00;100146.56;5111960;28;20023;-69
2023/03/01 01:11:49;;;;;;;8.43;5.53;;;;;;;5.08;100.00;100140.50;5110988;28;20054;-69
2023/03/01 01:14:16;;;;;;;6.55;4.82;;;;;;;5.11;100.00;100136.31;5112298;28;20016;-69
2023/03/01 01:16:41;;;;;;;7.38;5.15;;;;;;;5.14;100.00;100131.06;5111298;28;20486;-69
2023/03/01 01:19:07;;;;;;;6.68;5.25;;;;;;;5.20;100.00;100132.72;5112342;28;20020;-69
2023/03/01 01:21:32;;;;;;;7.75;5.07;;;;;;;5.18;100.00;100129.38;5112107;28;20023;-69
2023/03/01 01:23:58;;;;;;;7.85;5.35;;;;;;;5.18;100.00;100129.38;5110941;28;20026;-69
2023/03/01 01:26:29;;;;;;;6.78;5.32;;;;;;;5.09;100.00;100117.22;5111125;28;20051;-69
2023/03/01 01:28:56;;;;;;;6.32;5.25;;;;;;;5.14;100.00;100122.72;5109613;28;20094;-69
2023/03/01 01:31:23;;;;;;;6.40;5.53;;;;;;;5.16;100.00;100123.28;5112055;28;20121;-69
2023/03/01 01:33:50;;;;;;;6.65;4.90;;;;;;;5.30;100.00;100129.06;5112173;28;20032;-70
2023/03/01 01:36:16;;;;;;;5.93;4.90;;;;;;;5.22;100.00;100131.59;5110139;28;20060;-69
2023/03/01 01:38:42;;;;;;;6.10;4.95;;;;;;;5.12;100.00;100119.41;5112299;28;20374;-69
2023/03/01 01:41:08;;;;;;;7.10;5.43;;;;;;;5.19;100.00;100131.06;5115254;28;20030;-69
2023/03/01 01:43:37;;;;;;;6.18;5.10;;;;;;;5.25;100.00;100131.03;5130367;27;20810;-69
2023/03/01 01:46:15;;;;;;;7.97;5.70;;;;;;;5.07;100.00;100133.31;5118401;28;20030;-70
2023/03/01 01:48:46;;;;;;;6.53;5.35;;;;;;;5.12;100.00;100113.88;5125733;28;20481;-69
2023/03/01 01:51:18;;;;;;;6.90;5.10;;;;;;;5.15;100.00;100118.84;5112721;27;20395;-69
2023/03/01 01:53:49;;;;;;;6.45;4.72;;;;;;;5.11;100.00;100115.00;5111965;28;20027;-69
2023/03/01 01:56:17;;;;;;;6.32;5.13;;;;;;;5.23;100.00;100113.84;5099760;28;20023;-70
2023/03/01 01:58:44;;;;;;;5.43;4.72;;;;;;;5.22;100.00;100115.75;5124160;28;20106;-69
2023/03/01 02:01:11;;;;;;;10.68;5.47;;;;;;;5.30;100.00;100123.50;5119917;28;20549;-69
2023/03/01 02:03:42;;;;;;;5.95;5.30;;;;;;;5.24;100.00;100121.84;5125183;28;20019;-69
2023/03/01 02:06:37;;;;;;;6.40;4.80;;;;;;;5.20;100.00;100124.38;5112035;27;20088;-70
2023/03/01 02:09:11;;;;;;;5.43;4.57;;;;;;;5.22;100.00;100112.19;5102172;28;20027;-69
2023/03/01 02:11:37;;;;;;;6.30;5.18;;;;;;;5.21;100.00;100105.78;5111964;28;20051;-70
2023/03/01 02:14:03;;;;;;;4.90;4.40;;;;;;;5.30;100.00;100117.13;5111722;28;20016;-70
2023/03/01 02:16:30;;;;;;;6.15;5.28;;;;;;;5.26;100.00;100118.81;5111734;28;20122;-69
2023/03/01 02:18:56;;;;;;;6.97;4.93;;;;;;;5.24;100.00;100115.50;5110716;28;20027;-69
2023/03/01 02:21:54;;;;;;;5.97;4.70;;;;;;;5.39;100.00;100109.88;5112004;27;20378;-70
2023/03/01 02:24:19;;;;;;;6.50;4.63;;;;;;;5.30;100.00;100117.97;5099416;28;20115;-69
2023/03/01 02:26:52;;;;;;;6.00;4.82;;;;;;;5.31;100.00;100116.84;5113662;27;20126;-69
2023/03/01 02:29:17;;;;;;;6.97;4.68;;;;;;;5.27;100.00;100112.16;5124738;27;20090;-69
2023/03/01 02:31:43;;;;;;;9.38;5.60;;;;;;;5.38;100.00;100112.94;5135727;27;20330;-69
2023/03/01 02:34:35;;;;;;;9.05;5.57;;;;;;;5.41;100.00;100124.28;5126578;27;20049;-69
2023/03/01 02:37:04;;;;;;;9.23;5.72;;;;;;;5.25;100.00;100111.59;5106947;28;20040;-69
2023/03/01 02:39:41;;;;;;;8.18;5.97;;;;;;;5.29;100.00;100102.44;5117424;27;20398;-70
2023/03/01 02:42:12;;;;;;;16.58;7.07;;;;;;;5.23;100.00;100111.06;5103548;27;20526;-69
2023/03/01 02:44:38;;;;;;;10.30;6.68;;;;;;;5.32;100.00;100109.38;5126800;27;20030;-69
2023/03/01 02:47:05;;;;;;;10.23;7.20;;;;;;;5.27;100.00;100103.81;5116008;27;20032;-69
2023/03/01 02:49:34;;;;;;;12.98;8.55;;;;;;;5.34;100.00;100112.69;5114957;27;20027;-69
2023/03/01 02:52:37;;;;;;;11.02;7.90;;;;;;;5.20;100.00;100110.53;5123594;27;20186;-70
2023/03/01 02:55:08;;;;;;;9.02;6.45;;;;;;;5.22;100.00;100112.19;5135002;27;20031;-69
2023/03/01 02:57:37;;;;;;;9.95;7.25;;;;;;;5.23;100.00;100109.09;5135400;27;20058;-69
2023/03/01 03:00:19;;;;;;;9.20;6.22;;;;;;;5.22;100.00;100103.84;5135030;27;20030;-69
2023/03/01 03:02:49;;;;;;;10.93;7.40;;;;;;;5.22;100.00;100107.44;5126241;27;20031;-69
2023/03/01 03:05:24;;;;;;;9.23;6.95;;;;;;;5.26;100.00;100108.56;5114938;27;20092;-69
2023/03/01 03:07:50;;;;;;;11.90;6.85;;;;;;;5.14;100.00;100106.09;5113885;27;20036;-70
2023/03/01 03:10:25;;;;;;;12.02;8.15;;;;;;;5.05;100.00;100107.78;5114211;28;20582;-69
2023/03/01 03:12:53;;;;;;;9.88;6.95;;;;;;;5.09;100.00;100108.91;5130251;27;20027;-69
2023/03/01 03:15:20;;;;;;;10.98;7.50;;;;;;;5.02;100.00;100102.81;5113998;28;20055;-69
2023/03/01 03:17:46;;;;;;;10.77;7.07;;;;;;;5.07;100.00;100100.03;5113083;28;20176;-69
2023/03/01 03:20:18;;;;;;;11.65;8.00;;;;;;;5.11;100.00;100103.06;5113441;28;20034;-69
2023/03/01 03:22:46;;;;;;;10.82;7.32;;;;;;;4.96;100.00;100103.94;5112663;28;20019;-69
2023/03/01 03:25:12;;;;;;;11.27;7.88;;;;;;;4.97;100.00;100100.88;5112013;28;20482;-69
2023/03/01 03:27:43;;;;;;;11.10;7.22;;;;;;;5.07;100.00;100105.59;5112566;28;20028;-69
2023/03/01 03:30:12;;;;;;;10.85;7.65;;;;;;;4.97;100.00;100100.88;5114142;28;20054;-69
2023/03/01 03:32:42;;;;;;;10.98;7.68;;;;;;;5.02;100.00;100108.34;5113724;28;20026;-69
2023/03/01 03:35:10;;;;;;;11.02;7.75;;;;;;;4.99;100.00;100106.16;5113094;28;20535;-69
2023/03/01 03:40:25;;;;;;;9.45;7.55;;;;;;;4.87;100.00;100087.88;5119570;27;20033;-69
2023/03/01 03:42:50;;;;;;;9.80;7.53;;;;;;;5.00;100.00;100082.84;5113742;28;20020;-69
2023/03/01 03:45:17;;;;;;;11.63;7.93;;;;;;;5.03;100.00;100094.22;5126239;27;20388;-69
2023/03/01 03:47:43;;;;;;;9.85;7.20;;;;;;;5.01;100.00;100092.84;5132571;27;20038;-69
2023/03/01 03:50:10;;;;;;;9.95;7.07;;;;;;;4.96;100.00;100092.88;5119660;27;20051;-69
2023/03/01 03:52:36;;;;;;;12.32;7.55;;;;;;;5.04;100.00;100100.56;5111290;28;20032;-69
2023/03/01 03:55:02;;;;;;;11.88;8.25;;;;;;;4.97;100.00;100094.53;5115978;27;20024;-69
2023/03/01 03:57:27;;;;;;;13.60;7.85;;;;;;;4.96;100.00;100093.69;5116612;27;20409;-69
2023/03/01 03:59:52;;;;;;;13.90;8.18;;;;;;;5.13;100.00;100104.44;5132895;27;20068;-69
2023/03/01 04:02:21;;;;;;;10.25;7.10;;;;;;;5.20;100.00;100098.59;5133062;27;20084;-69
2023/03/01 04:04:49;;;;;;;12.95;7.13;;;;;;;5.16;100.00;100095.53;5125086;27;20027;-69
2023/03/01 04:07:16;;;;;;;11.27;7.25;;;;;;;5.06;100.00;100099.19;5120559;27;20414;-70
2023/03/01 04:09:42;;;;;;;12.48;7.68;;;;;;;4.98;100.00;100104.50;5112522;27;20035;-70
2023/03/01 04:12:08;;;;;;;10.15;6.80;;;;;;;4.97;100.00;100111.97;5111766;27;20043;-70
2023/03/01 04:14:34;;;;;;;10.90;6.70;;;;;;;5.06;100.00;100112.22;5121004;27;20027;-70
2023/03/01 04:16:59;;;;;;;10.32;7.03;;;;;;;5.10;100.00;100115.25;5114163;27;20038;-70
2023/03/01 04:19:26;;;;;;;11.45;7.35;;;;;;;5.03;100.00;100105.31;5117828;27;20482;-70
2023/03/01 04:21:52;;;;;;;8.43;6.07;;;;;;;5.03;100.00;100097.00;5121231;27;20087;-70
2023/03/01 04:24:18;;;;;;;11.00;6.35;;;;;;;5.01;100.00;100096.44;5119275;27;20035;-70
2023/03/01 04:26:43;;;;;;;11.88;6.57;;;;;;;4.97;100.00;100100.06;5122002;27;20486;-70
2023/03/01 04:29:09;;;;;;;8.30;5.63;;;;;;;5.00;100.00;100105.03;5113570;27;20059;-70
2023/03/01 04:31:34;;;;;;;7.85;5.90;;;;;;;4.94;100.00;100106.16;5121249;27;20038;-70
2023/03/01 04:34:00;;;;;;;7.05;5.50;;;;;;;5.11;100.00;100106.66;5131264;27;20027;-70
2023/03/01 04:36:28;;;;;;;9.05;6.00;;;;;;;5.07;100.00;100111.13;5115713;27;20132;-70
2023/03/01 04:38:55;;;;;;;10.18;6.00;;;;;;;5.10;100.00;100110.56;5126348;27;20031;-70
2023/03/01 04:41:23;;;;;;;7.25;5.40;;;;;;;5.13;100.00;100121.06;5126126;27;20023;-70
2023/03/01 04:43:49;;;;;;;8.77;6.38;;;;;;;5.06;100.00;100115.81;5110222;27;21759;-69
2023/03/01 04:46:17;;;;;;;7.82;6.13;;;;;;;5.02;100.00;100119.44;5110964;28;20028;-70
2023/03/01 04:48:44;;;;;;;9.52;6.68;;;;;;;5.09;100.00;100120.00;5127677;27;20031;-70
2023/03/01 04:51:13;;;;;;;9.82;7.30;;;;;;;5.15;100.00;100116.06;5104002;28;20038;-70
2023/03/01 04:53:40;;;;;;;14.30;6.25;;;;;;;5.14;100.00;100113.59;5111952;27;20453;-70
2023/03/01 04:56:06;;;;;;;9.52;7.22;;;;;;;5.13;100.00;100121.06;5113019;27;20032;-70
2023/03/01 04:58:32;;;;;;;10.75;7.68;;;;;;;5.11;100.00;100109.44;5131814;27;20425;-70
2023/03/01 05:00:57;;;;;;;12.90;8.77;;;;;;;5.06;100.00;100109.44;5117476;27;20055;-70
2023/03/01 05:03:24;;;;;;;16.67;8.93;;;;;;;5.02;100.00;100103.66;5112687;28;20515;-70
2023/03/01 05:05:51;;;;;;;12.85;8.90;;;;;;;4.95;100.00;100093.94;5110005;27;20023;-70
2023/03/01 05:08:17;;;;;;;13.90;8.85;;;;;;;5.01;100.00;100101.16;5116611;28;20487;-69
2023/03/01 05:10:51;;;;;;;12.80;8.27;;;;;;;4.97;100.00;100094.53;5117822;27;20142;-70
2023/03/01 05:13:21;;;;;;;12.80;9.30;;;;;;;4.96;100.00;100088.13;5111838;28;20421;-70
2023/03/01 05:15:58;;;;;;;12.23;8.32;;;;;;;5.07;100.00;100102.81;5111718;28;20051;-70
2023/03/01 05:18:25;;;;;;;11.50;8.18;;;;;;;5.06;100.00;100101.13;5109262;28;20104;-70
2023/03/01 05:20:56;;;;;;;11.65;7.88;;;;;;;5.08;100.00;100096.16;5110749;28;20058;-70
2023/03/01 05:23:21;;;;;;;;;;;;;;;4.99;100.00;100104.19;5110649;28;20035;-70
2023/03/01 05:25:47;;;;;;;13.70;8.15;;;;;;;5.08;100.00;100103.63;5111625;28;19957;-69
2023/03/01 05:28:13;;;;;;;12.77;8.48;;;;;;;5.00;100.00;100105.84;5110198;28;20085;-70
2023/03/01 05:30:39;;;;;;;12.77;8.98;;;;;;;5.04;100.00;100111.66;5110662;28;20550;-70
2023/03/01 05:33:10;;;;;;;13.27;8.43;;;;;;;4.97;100.00;100111.97;5111924;28;20035;-69
2023/03/01 05:35:36;;;;;;;14.85;9.52;;;;;;;5.05;100.00;100111.41;5109266;28;20520;-70
2023/03/01 05:38:02;;;;;;;15.27;10.48;;;;;;;5.06;100.00;100109.44;5113756;28;20031;-70
2023/03/01 05:40:29;;;;;;;17.42;11.88;;;;;;;5.03;100.00;100110.84;5113414;28;20132;-68
2023/03/01 05:42:56;;;;;;;18.75;12.43;;;;;;;5.11;100.00;100117.75;5112716;28;20486;-70
2023/03/01 05:45:24;;;;;;;19.17;11.50;;;;;;;5.01;100.00;100126.09;5110191;28;20019;-72
2023/03/01 05:47:51;;;;;;;18.67;11.07;;;;;;;5.01;100.00;100128.88;5111546;28;20024;-72
2023/03/01 05:50:22;;;;;;;15.88;9.93;;;;;;;5.04;100.00;100131.09;5110892;28;20024;-69
2023/03/01 05:53:00;;;;;;;16.38;10.55;;;;;;;5.03;100.00;100126.66;5098871;28;20043;-69
2023/03/01 05:55:26;;;;;;;18.88;11.10;;;;;;;5.20;100.00;100126.31;5124316;27;20405;-71
2023/03/01 05:57:52;;;;;;;14.55;10.48;;;;;;;5.17;100.00;100136.03;5124919;27;20019;-70
2023/03/01 06:00:21;;;;;;;15.88;10.48;;;;;;;5.20;100.00;100132.72;5118998;27;20016;-72
2023/03/01 06:02:47;;;;;;;16.58;10.63;;;;;;;5.09;100.00;100141.31;5120476;27;20106;-74
2023/03/01 06:05:14;;;;;;;19.33;11.55;;;;;;;5.17;100.00;100136.03;5126720;27;20038;-72
2023/03/01 06:07:41;;;;;;;17.88;11.70;;;;;;;5.11;100.00;100139.94;5124610;27;20027;-71
2023/03/01 06:10:10;;;;;;;16.95;11.88;;;;;;;5.12;100.00;100138.81;5116100;27;20112;-72
2023/03/01 06:12:37;;;;;;;16.52;10.57;;;;;;;5.15;100.00;100148.53;5111338;27;20482;-72
2023/03/01 06:15:04;;;;;;;15.88;11.77;;;;;;;5.20;100.00;100138.25;5110413;27;20042;-73
2023/03/01 06:17:31;;;;;;;18.35;12.10;;;;;;;5.15;100.00;100143.81;5114961;28;20032;-74
2023/03/01 06:19:57;;;;;;;16.65;10.85;;;;;;;5.16;100.00;100141.88;5113870;28;20055;-73
2023/03/01 06:22:23;;;;;;;21.58;13.35;;;;;;;5.17;100.00;100149.91;5111333;27;20529;-74
2023/03/01 06:24:49;;;;;;;20.17;13.15;;;;;;;5.12;100.00;100143.53;5111499;28;20035;-73
2023/03/01 06:27:15;;;;;;;18.85;12.65;;;;;;;5.19;100.00;100147.69;5113700;28;20042;-72
2023/03/01 06:29:40;;;;;;;21.20;12.73;;;;;;;5.23;100.00;100147.94;5102729;28;20020;-71
2023/03/01 06:32:07;;;;;;;21.58;13.68;;;;;;;5.24;100.00;100143.22;5110057;27;20417;-72
2023/03/01 06:34:32;;;;;;;18.92;13.02;;;;;;;5.16;100.00;100150.19;5107424;27;20028;-72
2023/03/01 06:36:58;;;;;;;24.67;16.10;;;;;;;5.20;100.00;100149.34;5108831;28;20028;-73
2023/03/01 06:39:23;;;;;;;19.27;13.05;;;;;;;5.30;100.00;100158.72;5100274;28;20040;-73
2023/03/01 06:41:49;;;;;;;30.27;16.95;;;;;;;5.22;100.00;100162.09;5101967;27;20039;-71
2023/03/01 06:44:14;;;;;;;22.95;16.48;;;;;;;5.27;100.00;100162.91;5110591;27;20387;-73
2023/03/01 06:46:40;;;;;;;21.95;14.90;;;;;;;5.33;100.00;100152.63;5109827;27;20406;-71
2023/03/01 06:49:09;;;;;;;22.10;14.65;;;;;;;5.29;100.00;100157.06;5109874;28;20059;-70
2023/03/01 06:51:36;;;;;;;22.83;14.07;;;;;;;5.42;100.00;100155.66;5100431;28;20031;-73
2023/03/01 06:54:02;;;;;;;30.63;13.00;;;;;;;5.41;100.00;100159.53;5106541;27;20725;-72
2023/03/01 06:56:28;;;;;;;20.75;14.18;;;;;;;5.51;100.00;100153.09;5108412;27;20035;-70
2023/03/01 06:58:53;;;;;;;16.67;11.70;;;;;;;5.48;100.00;100160.88;5109529;28;20520;-74
2023/03/01 07:01:19;;;;;;;15.63;10.55;;;;;;;5.46;100.00;100157.56;5105792;27;20520;-71
2023/03/01 07:03:44;;;;;;;16.52;10.77;;;;;;;5.45;100.00;100157.84;5108528;28;20039;-71
2023/03/01 07:06:10;;;;;;;30.73;19.38;;;;;;;5.44;100.00;100162.59;5107215;28;20028;-69
2023/03/01 07:08:35;;;;;;;40.42;19.77;;;;;;;5.49;100.00;100161.75;5106474;27;20035;-72
2023/03/01 07:11:03;;;;;;;62.33;39.03;;;;;;;5.53;100.00;100161.97;5111104;28;20054;-74
2023/03/01 07:13:28;;;;;;;127.85;114.70;;;;;;;5.57;100.00;100163.09;5109063;27;20026;-72
2023/03/01 07:15:54;;;;;;;98.07;72.55;;;;;;;5.58;100.00;100159.19;5108503;28;20476;-73
2023/03/01 07:18:19;;;;;;;126.30;85.43;;;;;;;5.56;100.00;100155.88;5112976;28;20059;-73
2023/03/01 07:20:45;;;;;;;112.28;88.03;;;;;;;5.40;100.00;100153.16;5112660;28;20039;-73
2023/03/01 07:23:10;;;;;;;61.20;44.35;;;;;;;5.42;100.00;100156.47;5090651;28;20024;-74
2023/03/01 07:25:36;;;;;;;27.13;16.95;;;;;;;5.43;100.00;100151.75;5090215;28;20031;-72
2023/03/01 07:28:01;;;;;;;14.07;9.02;;;;;;;5.41;100.00;100154.00;5090479;28;20028;-72
2023/03/01 07:30:28;;;;;;;14.82;8.65;;;;;;;5.50;100.00;100157.00;5106241;28;20130;-76
2023/03/01 07:32:55;;;;;;;9.77;7.65;;;;;;;5.41;100.00;100143.72;5105669;28;20028;-74
2023/03/01 07:35:21;;;;;;;12.98;10.75;;;;;;;5.56;100.00;100153.09;5102009;28;20037;-71
2023/03/01 07:37:47;;;;;;;26.67;22.27;;;;;;;5.65;100.00;100156.91;5106008;28;20035;-74
2023/03/01 07:40:13;;;;;;;24.00;21.40;;;;;;;5.59;100.00;100144.19;5102187;28;20024;-71
2023/03/01 07:42:38;;;;;;;23.05;20.58;;;;;;;5.63;100.00;100156.38;5099869;28;20459;-70
2023/03/01 07:45:05;;;;;;;17.42;14.57;;;;;;;5.64;100.00;100152.50;5105860;28;20111;-71
2023/03/01 07:47:31;;;;;;;11.48;8.32;;;;;;;5.67;100.00;100145.53;5105930;28;20023;-70
2023/03/01 07:49:57;;;;;;;7.47;6.10;;;;;;;5.65;100.00;100148.59;5108819;28;20037;-75
2023/03/01 07:52:22;;;;;;;13.98;11.93;;;;;;;5.74;100.00;100148.84;5103984;28;20031;-74
2023/03/01 07:54:48;;;;;;;8.70;7.40;;;;;;;5.83;100.00;100140.75;5106779;27;20031;-72
2023/03/01 07:57:13;;;;;;;6.65;5.53;;;;;;;5.81;100.00;100138.25;5110142;28;20023;-72
2023/03/01 07:59:39;;;;;;;7.57;5.95;;;;;;;5.79;100.00;100140.47;5106740;28;20038;-72
2023/03/01 08:02:05;;;;;;;6.35;4.95;;;;;;;5.65;100.00;100131.94;5108301;28;20089;-70
2023/03/01 08:04:32;;;;;;;9.15;6.18;;;;;;;5.81;100.00;100146.56;5103944;28;20023;-72
2023/03/01 08:06:58;;;;;;;12.57;6.90;;;;;;;5.84;100.00;100134.06;5108663;28;20073;-70
2023/03/01 08:09:24;;;;;;;12.23;7.35;;;;;;;5.87;100.00;100136.25;5110125;28;20413;-72
2023/03/01 08:11:50;;;;;;;9.25;6.38;;;;;;;5.78;100.00;100143.53;5110002;27;20060;-76
2023/03/01 08:14:15;;;;;;;8.32;6.55;;;;;;;5.86;100.00;100137.38;5110017;28;20057;-75
2023/03/01 08:16:41;;;;;;;10.02;7.47;;;;;;;5.76;100.00;100144.66;5106658;28;20059;-75
2023/03/01 08:19:11;;;;;;;29.42;23.60;;;;;;;5.83;100.00;100137.97;5105180;28;20071;-74
2023/03/01 08:21:37;;;;;;;34.75;22.83;;;;;;;5.69;100.00;100124.72;5104862;28;20549;-76
2023/03/01 08:24:05;;;;;;;24.23;19.40;;;;;;;5.74;100.00;100133.00;5109855;28;20031;-74
2023/03/01 08:26:32;;;;;;;21.42;16.00;;;;;;;5.92;100.00;100135.41;5108496;28;20456;-74
2023/03/01 08:28:58;;;;;;;11.20;7.82;;;;;;;5.90;100.00;100141.25;5108305;27;20027;-76
2023/03/01 08:31:26;;;;;;;9.75;6.82;;;;;;;6.03;100.00;100137.88;5109609;28;20042;-77
2023/03/01 08:33:57;;;;;;;20.15;13.65;;;;;;;6.15;100.00;100136.66;5104247;28;20118;-75
2023/03/01 08:36:31;;;;;;;9.32;7.15;;;;;;;6.00;100.00;100137.59;5104333;28;20650;-77
2023/03/01 08:38:57;;;;;;;8.13;5.35;;;;;;;5.99;100.00;100142.28;5109010;28;20511;-75
2023/03/01 08:41:23;;;;;;;7.38;5.95;;;;;;;5.92;100.00;100138.19;5106907;28;20069;-74
2023/03/01 08:43:49;;;;;;;9.88;6.15;;;;;;;5.99;100.00;100135.94;5098061;28;20027;-76
2023/03/01 08:46:15;;;;;;;9.32;5.80;;;;;;;5.98;100.00;100135.09;5104881;28;20039;-78
2023/03/01 08:48:42;;;;;;;7.93;5.13;;;;;;;6.02;100.00;100130.63;5104466;28;20133;-74
2023/03/01 08:51:17;;;;;;;11.25;6.82;;;;;;;6.00;100.00;100124.50;5109605;28;20079;-75
2023/03/01 08:53:43;;;;;;;8.63;6.40;;;;;;;5.94;100.00;100119.28;5106856;28;20031;-73
2023/03/01 08:56:09;;;;;;;9.10;6.43;;;;;;;6.06;100.00;100128.13;5109362;27;20419;-73
2023/03/01 08:58:35;;;;;;;7.82;5.95;;;;;;;6.09;100.00;100123.94;5112932;27;20039;-76
2023/03/01 09:01:09;;;;;;;10.95;7.60;;;;;;;6.12;100.00;100129.75;5111185;27;20036;-74
2023/03/01 09:03:34;;;;;;;9.40;6.18;;;;;;;6.20;100.00;100131.09;5112486;27;20028;-73
2023/03/01 09:06:01;;;;;;;10.82;7.75;;;;;;;6.21;100.00;100132.72;5102560;28;20565;-73
2023/03/01 09:08:27;;;;;;;14.77;10.60;;;;;;;6.21;100.00;100137.44;5096366;28;20042;-73
2023/03/01 09:10:52;;;;;;;154.02;80.63;;;;;;;6.16;100.00;100141.13;5097456;28;20040;-73
2023/03/01 09:13:18;;;;;;;32.38;23.10;;;;;;;6.19;100.00;100140.53;5094773;28;20043;-73
2023/03/01 09:15:43;;;;;;;26.13;17.73;;;;;;;6.26;100.00;100138.25;5105079;28;20036;-74
2023/03/01 09:18:09;;;;;;;35.15;23.80;;;;;;;6.42;100.00;100138.94;5105726;28;20449;-72
2023/03/01 09:20:34;;;;;;;43.72;35.67;;;;;;;6.43;100.00;100143.38;5102966;28;20032;-72
2023/03/01 09:23:00;;;;;;;22.42;17.23;;;;;;;6.47;100.00;100135.31;5104724;28;20035;-74
2023/03/01 09:25:25;;;;;;;22.77;16.05;;;;;;;6.40;100.00;100140.38;5106159;28;20500;-73
2023/03/01 09:27:52;;;;;;;11.98;8.57;;;;;;;6.35;100.00;100132.06;5106253;28;20498;-75
2023/03/01 09:30:18;;;;;;;12.65;9.10;;;;;;;6.29;100.00;100128.50;5107206;28;20034;-73
2023/03/01 09:32:44;;;;;;;18.70;5.80;;;;;;;6.25;100.00;100133.00;5112637;27;20024;-73
2023/03/01 09:35:10;;;;;;;8.77;6.25;;;;;;;6.30;100.00;100130.16;5110513;27;20410;-74
2023/03/01 09:37:37;;;;;;;11.07;8.73;;;;;;;6.46;100.00;100130.88;5107955;28;20027;-76
2023/03/01 09:40:05;;;;;;;8.52;5.70;;;;;;;6.48;100.00;100125.84;5107778;28;20405;-77
2023/03/01 09:42:34;;;;;;;16.30;8.98;;;;;;;6.49;100.00;100123.91;5107797;28;20032;-73
2023/03/01 09:45:09;;;;;;;253.68;149.77;;;;;;;6.50;100.00;100123.59;5111871;28;20065;-73
2023/03/01 09:47:36;;;;;;;43.70;27.08;;;;;;;6.56;100.00;100113.25;5108968;27;20127;-74
2023/03/01 09:50:14;;;;;;;29.23;18.00;;;;;;;6.62;100.00;100120.44;5110931;27;20028;-76
2023/03/01 09:52:48;;;;;;;13.27;9.77;;;;;;;6.71;100.00;100126.19;5106173;27;20028;-75
2023/03/01 09:55:17;;;;;;;11.75;8.30;;;;;;;6.54;100.00;100104.38;5111395;27;20031;-72
2023/03/01 09:57:53;;;;;;;12.45;9.52;;;;;;;6.58;100.00;100111.84;5110702;27;20019;-72
2023/03/01 10:00:34;;;;;;;15.60;6.47;;;;;;;6.59;100.00;100110.72;5108117;27;20027;-74
2023/03/01 10:03:10;;;;;;;6.53;5.32;;;;;;;6.67;100.00;100106.47;5111760;27;20478;-76
2023/03/01 10:05:54;;;;;;;10.50;7.05;;;;;;;6.57;100.00;100104.63;5108463;27;20023;-73
2023/03/01 10:08:36;;;;;;;10.48;6.55;;;;;;;6.71;100.00;100101.16;5119918;27;20038;-73
2023/03/01 10:11:02;;;;;;;9.70;5.65;;;;;;;6.69;100.00;100097.88;5107422;27;20040;-74
2023/03/01 10:13:48;;;;;;;11.27;5.55;;;;;;;6.60;100.00;100104.03;5111322;28;20145;-73
2023/03/01 10:16:40;;;;;;;7.00;5.80;;;;;;;6.57;100.00;100107.41;5109745;28;20028;-73
2023/03/01 10:19:13;;;;;;;11.18;6.00;;;;;;;6.60;100.00;100090.16;5094433;27;20131;-76
2023/03/01 10:21:45;;;;;;;5.85;4.88;;;;;;;6.59;100.00;100094.06;5104503;28;20032;-73
2023/03/01 10:24:14;;;;;;;9.30;5.28;;;;;;;6.64;100.00;100098.72;5099342;28;20097;-73
2023/03/01 10:27:02;;;;;;;8.05;6.30;;;;;;;6.66;100.00;100090.13;5097082;28;20059;-74
2023/03/01 10:29:48;;;;;;;12.25;7.43;;;;;;;6.60;100.00;100092.94;5125775;27;20050;-74
2023/03/01 10:32:18;;;;;;;16.20;8.25;;;;;;;6.57;100.00;100087.97;5110126;28;20543;-73
2023/03/01 10:34:43;;;;;;;11.23;7.32;;;;;;;6.55;100.00;100098.56;5110693;28;20027;-78
2023/03/01 10:37:13;;;;;;;14.13;6.25;;;;;;;6.52;100.00;100096.38;5109754;28;20092;-72
2023/03/01 10:40:08;;;;;;;9.13;6.15;;;;;;;6.64;100.00;100095.97;5108274;27;20087;-72
2023/03/01 10:42:39;;;;;;;10.10;5.70;;;;;;;6.57;100.00;100087.97;5097452;28;20028;-71
2023/03/01 10:45:28;;;;;;;8.23;6.18;;;;;;;6.62;100.00;100086.25;5104601;27;20028;-72
2023/03/01 10:48:29;;;;;;;12.80;9.00;;;;;;;6.78;100.00;100076.63;5103855;28;20031;-76
2023/03/01 10:50:57;;;;;;;12.25;7.35;;;;;;;6.82;100.00;100079.66;5062347;28;20048;-75
2023/03/01 10:53:30;;;;;;;13.68;6.85;;;;;;;6.92;100.00;100067.59;5105313;28;20490;-75
2023/03/01 10:56:06;;;;;;;6.75;5.65;;;;;;;6.71;100.00;100073.38;5109364;28;20042;-74
2023/03/01 10:58:34;;;;;;;11.05;7.47;;;;;;;6.71;99.91;100074.22;5110105;28;20023;-74
2023/03/01 11:01:03;;;;;;;10.52;7.50;;;;;;;6.71;100.00;100068.66;5106101;27;20119;-79
2023/03/01 11:03:38;;;;;;;10.50;7.20;;;;;;;6.67;99.83;100066.75;5109626;28;20114;-76
2023/03/01 11:06:04;;;;;;;9.15;7.45;;;;;;;6.74;100.00;100058.88;5112050;28;20047;-77
2023/03/01 11:08:50;;;;;;;14.38;7.15;;;;;;;6.82;100.00;100063.78;5108154;28;20063;-75
2023/03/01 11:11:32;;;;;;;7.95;6.05;;;;;;;6.64;100.00;100050.66;5104826;27;20053;-81
2023/03/01 11:14:16;;;;;;;9.77;6.05;;;;;;;6.71;100.00;100048.34;5109932;28;20019;-77
2023/03/01 11:16:44;;;;;;;8.93;6.13;;;;;;;6.73;100.00;100040.53;5105984;28;20030;-80
2023/03/01 11:19:10;;;;;;;10.88;6.43;;;;;;;6.67;100.00;100036.97;5109718;28;20027;-81
2023/03/01 11:21:40;;;;;;;10.77;8.13;;;;;;;6.75;100.00;100027.16;5108982;28;20032;-81
2023/03/01 11:24:13;;;;;;;12.25;6.70;;;;;;;6.70;100.00;100021.66;5105853;27;20425;-81
2023/03/01 11:26:42;;;;;;;9.30;6.05;;;;;;;6.74;100.00;100025.50;5102912;28;20495;-76
2023/03/01 11:29:21;;;;;;;13.23;7.90;;;;;;;6.63;100.00;100024.81;5110344;27;20023;-81